sensor_id;sensor_type;location;lat;lon;timestamp;temperature;humidity
18153;DHT22;9202;51.578;7.734;2023-10-31T00:00:03;13.00;99.90
18153;DHT22;9202;51.578;7.734;2023-10-31T00:02:06;13.00;99.90
18153;DHT22;9202;51.578;7.734;2023-10-31T00:04:09;12.90;99.90
18153;DHT22;9202;51.578;7.734;2023-10-31T00:06:12;12.90;99.90
18153;DHT22;9202;51.578;7.734;2023-10-31T00:08:15;12.90;99.90
18153;DHT22;9202;51.578;7.734;2023-10-31T00:10:17;13.00;99.90
18153;DHT22;9202;51.578;7.734;2023-10-31T00:12:20;13.00;99.90
18153;DHT22;9202;51.578;7.734;2023-10-31T00:14:22;13.00;99.90
18153;DHT22;9202;51.578;7.734;2023-10-31T00:16:27;13.00;99.90
18153;DHT22;9202;51.578;7.734;2023-10-31T00:18:29;13.00;99.90
18153;DHT22;9202;51.578;7.734;2023-10-31T00:20:32;13.00;99.90
18153;DHT22;9202;51.578;7.734;2023-10-31T00:22:35;13.00;99.90
18153;DHT22;9202;51.578;7.734;2023-10-31T00:24:37;12.90;99.90
18153;DHT22;9202;51.578;7.734;2023-10-31T00:26:40;13.00;99.90
18153;DHT22;9202;51.578;7.734;2023-10-31T00:28:42;13.00;99.90
18153;DHT22;9202;51.578;7.734;2023-10-31T00:30:45;13.00;99.90
18153;DHT22;9202;51.578;7.734;2023-10-31T00:32:48;13.00;99.90
18153;DHT22;9202;51.578;7.734;2023-10-31T00:34:51;12.90;99.90
18153;DHT22;9202;51.578;7.734;2023-10-31T00:36:55;14.30;99.90
18153;DHT22;9202;51.578;7.734;2023-10-31T00:38:58;12.70;99.90
18153;DHT22;9202;51.578;7.734;2023-10-31T00:41:00;12.50;99.90
18153;DHT22;9202;51.578;7.734;2023-10-31T00:43:03;12.50;99.90
18153;DHT22;9202;51.578;7.734;2023-10-31T00:45:06;12.30;99.90
18153;DHT22;9202;51.578;7.734;2023-10-31T00:47:09;12.20;99.90
18153;DHT22;9202;51.578;7.734;2023-10-31T00:49:12;12.20;99.90
18153;DHT22;9202;51.578;7.734;2023-10-31T00:51:15;12.20;99.90
18153;DHT22;9202;51.578;7.734;2023-10-31T00:53:18;12.00;99.90
18153;DHT22;9202;51.578;7.734;2023-10-31T00:55:20;12.20;99.90
18153;DHT22;9202;51.578;7.734;2023-10-31T00:57:23;11.80;99.90
18153;DHT22;9202;51.578;7.734;2023-10-31T00:59:26;11.70;99.90
18153;DHT22;9202;51.578;7.734;2023-10-31T01:01:32;11.70;99.90
18153;DHT22;9202;51.578;7.734;2023-10-31T01:03:36;11.60;99.90
18153;DHT22;9202;51.578;7.734;2023-10-31T01:05:40;11.60;99.90
18153;DHT22;9202;51.578;7.734;2023-10-31T01:07:42;11.60;99.90
18153;DHT22;9202;51.578;7.734;2023-10-31T01:09:45;11.50;99.90
18153;DHT22;9202;51.578;7.734;2023-10-31T01:11:48;11.40;99.90
18153;DHT22;9202;51.578;7.734;2023-10-31T01:13:50;11.40;99.90
18153;DHT22;9202;51.578;7.734;2023-10-31T01:15:53;11.40;99.90
18153;DHT22;9202;51.578;7.734;2023-10-31T01:17:56;11.30;99.90
18153;DHT22;9202;51.578;7.734;2023-10-31T01:19:58;14.50;99.90
18153;DHT22;9202;51.578;7.734;2023-10-31T01:22:01;11.30;99.90
18153;DHT22;9202;51.578;7.734;2023-10-31T01:24:04;11.30;99.90
18153;DHT22;9202;51.578;7.734;2023-10-31T01:26:07;11.20;99.90
18153;DHT22;9202;51.578;7.734;2023-10-31T01:28:12;11.20;99.90
18153;DHT22;9202;51.578;7.734;2023-10-31T01:30:15;11.20;99.90
18153;DHT22;9202;51.578;7.734;2023-10-31T01:32:21;11.20;99.90
18153;DHT22;9202;51.578;7.734;2023-10-31T01:34:30;11.10;99.90
18153;DHT22;9202;51.578;7.734;2023-10-31T01:36:33;11.40;99.90
18153;DHT22;9202;51.578;7.734;2023-10-31T01:38:36;9.20;99.90
18153;DHT22;9202;51.578;7.734;2023-10-31T01:40:38;11.10;99.90
18153;DHT22;9202;51.578;7.734;2023-10-31T01:42:43;11.00;99.90
18153;DHT22;9202;51.578;7.734;2023-10-31T01:44:45;11.00;99.90
18153;DHT22;9202;51.578;7.734;2023-10-31T01:46:48;11.00;99.90
18153;DHT22;9202;51.578;7.734;2023-10-31T01:48:51;11.00;99.90
18153;DHT22;9202;51.578;7.734;2023-10-31T01:50:54;11.00;99.90
18153;DHT22;9202;51.578;7.734;2023-10-31T01:52:56;11.00;99.90
18153;DHT22;9202;51.578;7.734;2023-10-31T01:54:59;11.00;99.90
18153;DHT22;9202;51.578;7.734;2023-10-31T01:57:04;10.90;99.90
18153;DHT22;9202;51.578;7.734;2023-10-31T01:59:07;10.90;99.90
18153;DHT22;9202;51.578;7.734;2023-10-31T02:01:11;10.90;99.90
18153;DHT22;9202;51.578;7.734;2023-10-31T02:03:13;10.80;99.90
18153;DHT22;9202;51.578;7.734;2023-10-31T02:05:16;10.80;99.90
18153;DHT22;9202;51.578;7.734;2023-10-31T02:07:19;10.80;99.90
18153;DHT22;9202;51.578;7.734;2023-10-31T02:09:22;10.80;99.90
18153;DHT22;9202;51.578;7.734;2023-10-31T02:11:26;10.80;99.90
18153;DHT22;9202;51.578;7.734;2023-10-31T02:13:29;10.80;99.90
18153;DHT22;9202;51.578;7.734;2023-10-31T02:15:32;10.70;99.90
18153;DHT22;9202;51.578;7.734;2023-10-31T02:17:34;10.70;99.90
18153;DHT22;9202;51.578;7.734;2023-10-31T02:19:37;10.70;99.90
18153;DHT22;9202;51.578;7.734;2023-10-31T02:21:40;10.70;99.90
18153;DHT22;9202;51.578;7.734;2023-10-31T02:23:43;10.70;99.90
18153;DHT22;9202;51.578;7.734;2023-10-31T02:25:47;10.70;99.90
18153;DHT22;9202;51.578;7.734;2023-10-31T02:27:50;10.70;99.90
18153;DHT22;9202;51.578;7.734;2023-10-31T02:29:55;10.70;99.90
18153;DHT22;9202;51.578;7.734;2023-10-31T02:31:57;10.70;99.90
18153;DHT22;9202;51.578;7.734;2023-10-31T02:34:00;10.70;99.90
18153;DHT22;9202;51.578;7.734;2023-10-31T02:36:03;10.70;99.90
18153;DHT22;9202;51.578;7.734;2023-10-31T02:38:06;10.60;99.90
18153;DHT22;9202;51.578;7.734;2023-10-31T02:40:10;10.60;99.90
18153;DHT22;9202;51.578;7.734;2023-10-31T02:42:12;10.70;99.90
18153;DHT22;9202;51.578;7.734;2023-10-31T02:44:15;10.70;99.90
18153;DHT22;9202;51.578;7.734;2023-10-31T02:46:18;10.60;99.90
18153;DHT22;9202;51.578;7.734;2023-10-31T02:48:21;10.60;99.90
18153;DHT22;9202;51.578;7.734;2023-10-31T02:50:23;10.70;99.90
18153;DHT22;9202;51.578;7.734;2023-10-31T02:52:26;10.70;99.90
18153;DHT22;9202;51.578;7.734;2023-10-31T02:54:30;10.70;99.90
18153;DHT22;9202;51.578;7.734;2023-10-31T02:56:32;10.70;99.90
18153;DHT22;9202;51.578;7.734;2023-10-31T02:58:35;10.70;99.90
18153;DHT22;9202;51.578;7.734;2023-10-31T03:00:37;10.70;99.90
18153;DHT22;9202;51.578;7.734;2023-10-31T03:02:40;10.70;99.90
18153;DHT22;9202;51.578;7.734;2023-10-31T03:04:43;10.70;99.90
18153;DHT22;9202;51.578;7.734;2023-10-31T03:06:46;10.70;99.90
18153;DHT22;9202;51.578;7.734;2023-10-31T03:08:48;10.70;99.90
18153;DHT22;9202;51.578;7.734;2023-10-31T03:10:51;10.70;99.90
18153;DHT22;9202;51.578;7.734;2023-10-31T03:12:55;10.70;99.90
18153;DHT22;9202;51.578;7.734;2023-10-31T03:14:58;10.70;99.90
18153;DHT22;9202;51.578;7.734;2023-10-31T03:17:00;10.70;99.90
18153;DHT22;9202;51.578;7.734;2023-10-31T03:19:03;10.70;99.90
18153;DHT22;9202;51.578;7.734;2023-10-31T03:21:06;10.70;99.90
18153;DHT22;9202;51.578;7.734;2023-10-31T03:23:09;10.70;99.90
18153;DHT22;9202;51.578;7.734;2023-10-31T03:25:11;10.70;99.90
18153;DHT22;9202;51.578;7.734;2023-10-31T03:27:14;10.70;99.90
18153;DHT22;9202;51.578;7.734;2023-10-31T03:29:16;10.70;99.90
18153;DHT22;9202;51.578;7.734;2023-10-31T03:31:21;10.70;99.90
18153;DHT22;9202;51.578;7.734;2023-10-31T03:33:24;10.60;99.90
18153;DHT22;9202;51.578;7.734;2023-10-31T03:35:27;10.70;99.90
18153;DHT22;9202;51.578;7.734;2023-10-31T03:37:29;10.70;99.90
18153;DHT22;9202;51.578;7.734;2023-10-31T03:39:32;10.60;99.90
18153;DHT22;9202;51.578;7.734;2023-10-31T03:41:35;10.70;99.90
18153;DHT22;9202;51.578;7.734;2023-10-31T03:43:37;10.60;99.90
18153;DHT22;9202;51.578;7.734;2023-10-31T03:45:40;10.60;99.90
18153;DHT22;9202;51.578;7.734;2023-10-31T03:47:43;10.60;99.90
18153;DHT22;9202;51.578;7.734;2023-10-31T03:49:46;10.50;99.90
18153;DHT22;9202;51.578;7.734;2023-10-31T03:51:48;10.50;99.90
18153;DHT22;9202;51.578;7.734;2023-10-31T03:53:51;10.50;99.90
18153;DHT22;9202;51.578;7.734;2023-10-31T03:58:12;10.60;99.90
18153;DHT22;9202;51.578;7.734;2023-10-31T04:00:15;10.60;99.90
18153;DHT22;9202;51.578;7.734;2023-10-31T04:02:18;10.60;99.90
18153;DHT22;9202;51.578;7.734;2023-10-31T04:04:20;10.60;99.90
18153;DHT22;9202;51.578;7.734;2023-10-31T04:06:23;10.60;99.90
18153;DHT22;9202;51.578;7.734;2023-10-31T04:08:26;10.60;99.90
18153;DHT22;9202;51.578;7.734;2023-10-31T04:10:28;10.60;99.90
18153;DHT22;9202;51.578;7.734;2023-10-31T04:12:31;10.60;99.90
18153;DHT22;9202;51.578;7.734;2023-10-31T04:14:34;10.70;99.90
18153;DHT22;9202;51.578;7.734;2023-10-31T04:16:38;10.70;99.90
18153;DHT22;9202;51.578;7.734;2023-10-31T04:18:41;10.60;99.90
18153;DHT22;9202;51.578;7.734;2023-10-31T04:20:43;10.70;99.90
18153;DHT22;9202;51.578;7.734;2023-10-31T04:22:46;10.70;99.90
18153;DHT22;9202;51.578;7.734;2023-10-31T04:24:49;10.70;99.90
18153;DHT22;9202;51.578;7.734;2023-10-31T04:26:51;10.70;99.90
18153;DHT22;9202;51.578;7.734;2023-10-31T04:28:54;10.70;99.90
18153;DHT22;9202;51.578;7.734;2023-10-31T04:30:56;10.70;99.90
18153;DHT22;9202;51.578;7.734;2023-10-31T04:32:59;10.70;99.90
18153;DHT22;9202;51.578;7.734;2023-10-31T04:35:02;10.70;99.90
18153;DHT22;9202;51.578;7.734;2023-10-31T04:37:05;10.70;99.90
18153;DHT22;9202;51.578;7.734;2023-10-31T04:39:07;10.70;99.90
18153;DHT22;9202;51.578;7.734;2023-10-31T04:41:10;10.80;99.90
18153;DHT22;9202;51.578;7.734;2023-10-31T04:43:13;10.80;99.90
18153;DHT22;9202;51.578;7.734;2023-10-31T04:45:15;10.80;99.90
18153;DHT22;9202;51.578;7.734;2023-10-31T04:47:18;10.80;99.90
18153;DHT22;9202;51.578;7.734;2023-10-31T04:49:21;10.80;99.90
18153;DHT22;9202;51.578;7.734;2023-10-31T04:51:24;10.80;99.90
18153;DHT22;9202;51.578;7.734;2023-10-31T04:53:27;10.80;99.90
18153;DHT22;9202;51.578;7.734;2023-10-31T04:55:29;10.80;99.90
18153;DHT22;9202;51.578;7.734;2023-10-31T04:57:32;10.80;99.90
18153;DHT22;9202;51.578;7.734;2023-10-31T04:59:34;10.80;99.90
18153;DHT22;9202;51.578;7.734;2023-10-31T05:01:37;10.80;99.90
18153;DHT22;9202;51.578;7.734;2023-10-31T05:03:40;10.80;99.90
18153;DHT22;9202;51.578;7.734;2023-10-31T05:05:42;10.80;99.90
18153;DHT22;9202;51.578;7.734;2023-10-31T05:07:45;10.80;99.90
18153;DHT22;9202;51.578;7.734;2023-10-31T05:09:47;10.80;99.90
18153;DHT22;9202;51.578;7.734;2023-10-31T05:11:50;10.80;99.90
18153;DHT22;9202;51.578;7.734;2023-10-31T05:13:53;10.80;99.90
18153;DHT22;9202;51.578;7.734;2023-10-31T05:15:55;10.80;99.90
18153;DHT22;9202;51.578;7.734;2023-10-31T05:17:58;10.70;99.90
18153;DHT22;9202;51.578;7.734;2023-10-31T05:20:01;10.80;99.90
18153;DHT22;9202;51.578;7.734;2023-10-31T05:22:04;10.80;99.90
18153;DHT22;9202;51.578;7.734;2023-10-31T05:24:07;10.80;99.90
18153;DHT22;9202;51.578;7.734;2023-10-31T05:26:10;10.80;99.90
18153;DHT22;9202;51.578;7.734;2023-10-31T05:28:12;10.70;99.90
18153;DHT22;9202;51.578;7.734;2023-10-31T05:30:15;10.70;99.90
18153;DHT22;9202;51.578;7.734;2023-10-31T05:32:17;10.70;99.90
18153;DHT22;9202;51.578;7.734;2023-10-31T05:34:20;10.70;99.90
18153;DHT22;9202;51.578;7.734;2023-10-31T05:36:23;10.80;99.90
18153;DHT22;9202;51.578;7.734;2023-10-31T05:38:26;10.70;99.90
18153;DHT22;9202;51.578;7.734;2023-10-31T05:40:28;10.70;99.90
18153;DHT22;9202;51.578;7.734;2023-10-31T05:42:31;10.70;99.90
18153;DHT22;9202;51.578;7.734;2023-10-31T05:44:34;10.80;99.90
18153;DHT22;9202;51.578;7.734;2023-10-31T05:46:37;10.80;99.90
18153;DHT22;9202;51.578;7.734;2023-10-31T05:48:41;10.80;99.90
18153;DHT22;9202;51.578;7.734;2023-10-31T05:50:44;10.80;99.90
18153;DHT22;9202;51.578;7.734;2023-10-31T05:52:47;10.70;99.90
18153;DHT22;9202;51.578;7.734;2023-10-31T05:54:49;10.80;99.90
18153;DHT22;9202;51.578;7.734;2023-10-31T05:56:52;10.70;99.90
18153;DHT22;9202;51.578;7.734;2023-10-31T05:58:55;10.70;99.90
18153;DHT22;9202;51.578;7.734;2023-10-31T06:00:57;10.70;99.90
18153;DHT22;9202;51.578;7.734;2023-10-31T06:03:00;10.80;99.90
18153;DHT22;9202;51.578;7.734;2023-10-31T06:05:03;10.70;99.90
18153;DHT22;9202;51.578;7.734;2023-10-31T06:07:06;10.70;99.90
18153;DHT22;9202;51.578;7.734;2023-10-31T06:09:09;10.70;99.90
18153;DHT22;9202;51.578;7.734;2023-10-31T06:11:12;10.70;99.90
18153;DHT22;9202;51.578;7.734;2023-10-31T06:13:15;10.70;99.90
18153;DHT22;9202;51.578;7.734;2023-10-31T06:15:18;10.70;99.90
18153;DHT22;9202;51.578;7.734;2023-10-31T06:17:21;10.70;99.90
18153;DHT22;9202;51.578;7.734;2023-10-31T06:19:23;10.70;99.90
18153;DHT22;9202;51.578;7.734;2023-10-31T06:21:26;10.70;99.90
18153;DHT22;9202;51.578;7.734;2023-10-31T06:23:29;10.70;99.90
18153;DHT22;9202;51.578;7.734;2023-10-31T06:25:33;10.70;99.90
18153;DHT22;9202;51.578;7.734;2023-10-31T06:27:36;10.70;99.90
18153;DHT22;9202;51.578;7.734;2023-10-31T06:29:38;10.60;99.90
18153;DHT22;9202;51.578;7.734;2023-10-31T06:31:43;10.70;99.90
18153;DHT22;9202;51.578;7.734;2023-10-31T06:33:45;10.60;99.90
18153;DHT22;9202;51.578;7.734;2023-10-31T06:35:48;10.70;99.90
18153;DHT22;9202;51.578;7.734;2023-10-31T06:37:50;10.70;99.90
18153;DHT22;9202;51.578;7.734;2023-10-31T06:39:53;10.70;99.90
18153;DHT22;9202;51.578;7.734;2023-10-31T06:41:56;10.70;99.90
18153;DHT22;9202;51.578;7.734;2023-10-31T06:43:59;10.70;99.90
18153;DHT22;9202;51.578;7.734;2023-10-31T06:46:02;10.60;99.90
18153;DHT22;9202;51.578;7.734;2023-10-31T06:48:06;10.60;99.90
18153;DHT22;9202;51.578;7.734;2023-10-31T06:50:11;10.60;99.90
18153;DHT22;9202;51.578;7.734;2023-10-31T06:52:13;10.70;99.90
18153;DHT22;9202;51.578;7.734;2023-10-31T06:54:16;10.70;99.90
18153;DHT22;9202;51.578;7.734;2023-10-31T06:56:19;10.70;99.90
18153;DHT22;9202;51.578;7.734;2023-10-31T06:58:21;10.60;99.90
18153;DHT22;9202;51.578;7.734;2023-10-31T07:00:24;10.60;99.90
18153;DHT22;9202;51.578;7.734;2023-10-31T07:02:27;10.70;99.90
18153;DHT22;9202;51.578;7.734;2023-10-31T07:04:29;10.70;99.90
18153;DHT22;9202;51.578;7.734;2023-10-31T07:06:32;10.70;99.90
18153;DHT22;9202;51.578;7.734;2023-10-31T07:08:35;10.70;99.90
18153;DHT22;9202;51.578;7.734;2023-10-31T07:10:38;10.70;99.90
18153;DHT22;9202;51.578;7.734;2023-10-31T07:12:40;10.70;99.90
18153;DHT22;9202;51.578;7.734;2023-10-31T07:14:43;10.80;99.90
18153;DHT22;9202;51.578;7.734;2023-10-31T07:16:46;10.80;99.90
18153;DHT22;9202;51.578;7.734;2023-10-31T07:18:50;10.80;99.90
18153;DHT22;9202;51.578;7.734;2023-10-31T07:20:52;10.80;99.90
18153;DHT22;9202;51.578;7.734;2023-10-31T07:22:55;10.80;99.90
18153;DHT22;9202;51.578;7.734;2023-10-31T07:24:59;10.80;99.90
18153;DHT22;9202;51.578;7.734;2023-10-31T07:27:03;10.80;99.90
18153;DHT22;9202;51.578;7.734;2023-10-31T07:29:06;10.80;99.90
18153;DHT22;9202;51.578;7.734;2023-10-31T07:31:09;10.80;99.90
18153;DHT22;9202;51.578;7.734;2023-10-31T07:33:12;10.80;99.90
18153;DHT22;9202;51.578;7.734;2023-10-31T07:35:14;10.90;99.90
18153;DHT22;9202;51.578;7.734;2023-10-31T07:37:17;10.80;99.90
18153;DHT22;9202;51.578;7.734;2023-10-31T07:39:20;10.80;99.90
18153;DHT22;9202;51.578;7.734;2023-10-31T07:41:23;10.80;99.90
18153;DHT22;9202;51.578;7.734;2023-10-31T07:43:25;10.80;99.90
18153;DHT22;9202;51.578;7.734;2023-10-31T07:45:29;10.80;99.90
18153;DHT22;9202;51.578;7.734;2023-10-31T07:47:31;10.80;99.90
18153;DHT22;9202;51.578;7.734;2023-10-31T07:49:34;10.80;99.90
18153;DHT22;9202;51.578;7.734;2023-10-31T07:51:37;10.80;99.90
18153;DHT22;9202;51.578;7.734;2023-10-31T07:53:40;10.80;99.90
18153;DHT22;9202;51.578;7.734;2023-10-31T07:55:45;10.80;99.90
18153;DHT22;9202;51.578;7.734;2023-10-31T07:57:48;10.80;99.90
18153;DHT22;9202;51.578;7.734;2023-10-31T07:59:51;10.80;99.90
18153;DHT22;9202;51.578;7.734;2023-10-31T08:01:54;10.90;99.90
18153;DHT22;9202;51.578;7.734;2023-10-31T08:03:56;10.90;99.90
18153;DHT22;9202;51.578;7.734;2023-10-31T08:05:59;10.90;99.90
18153;DHT22;9202;51.578;7.734;2023-10-31T08:08:02;11.00;99.90
18153;DHT22;9202;51.578;7.734;2023-10-31T08:10:05;10.90;99.90
18153;DHT22;9202;51.578;7.734;2023-10-31T08:12:09;11.00;99.90
18153;DHT22;9202;51.578;7.734;2023-10-31T08:14:12;11.00;99.90
18153;DHT22;9202;51.578;7.734;2023-10-31T08:16:17;11.10;99.90
18153;DHT22;9202;51.578;7.734;2023-10-31T08:18:20;11.10;99.90
18153;DHT22;9202;51.578;7.734;2023-10-31T08:20:22;11.10;99.90
18153;DHT22;9202;51.578;7.734;2023-10-31T08:22:25;11.10;99.90
18153;DHT22;9202;51.578;7.734;2023-10-31T08:24:27;11.10;99.90
18153;DHT22;9202;51.578;7.734;2023-10-31T08:26:30;11.10;99.90
18153;DHT22;9202;51.578;7.734;2023-10-31T08:31:00;11.20;99.90
18153;DHT22;9202;51.578;7.734;2023-10-31T08:33:03;11.30;99.90
18153;DHT22;9202;51.578;7.734;2023-10-31T08:35:06;11.30;99.90
18153;DHT22;9202;51.578;7.734;2023-10-31T08:37:09;11.20;99.90
18153;DHT22;9202;51.578;7.734;2023-10-31T08:39:11;11.30;99.90
18153;DHT22;9202;51.578;7.734;2023-10-31T08:41:14;11.30;99.90
18153;DHT22;9202;51.578;7.734;2023-10-31T08:43:19;11.30;99.90
18153;DHT22;9202;51.578;7.734;2023-10-31T08:45:21;11.30;99.90
18153;DHT22;9202;51.578;7.734;2023-10-31T08:47:26;11.30;99.90
18153;DHT22;9202;51.578;7.734;2023-10-31T08:49:30;11.30;99.90
18153;DHT22;9202;51.578;7.734;2023-10-31T08:51:32;11.30;99.90
18153;DHT22;9202;51.578;7.734;2023-10-31T08:53:35;11.30;99.90
18153;DHT22;9202;51.578;7.734;2023-10-31T08:55:37;11.30;99.90
18153;DHT22;9202;51.578;7.734;2023-10-31T08:57:40;11.30;99.90
18153;DHT22;9202;51.578;7.734;2023-10-31T08:59:43;11.30;99.90
18153;DHT22;9202;51.578;7.734;2023-10-31T09:01:45;11.30;99.90
18153;DHT22;9202;51.578;7.734;2023-10-31T09:03:48;11.30;99.90
18153;DHT22;9202;51.578;7.734;2023-10-31T09:05:51;11.40;99.90
18153;DHT22;9202;51.578;7.734;2023-10-31T09:07:54;11.40;99.90
18153;DHT22;9202;51.578;7.734;2023-10-31T09:09:59;11.40;99.90
18153;DHT22;9202;51.578;7.734;2023-10-31T09:12:02;11.40;99.90
18153;DHT22;9202;51.578;7.734;2023-10-31T09:14:06;11.50;99.90
18153;DHT22;9202;51.578;7.734;2023-10-31T09:16:08;11.50;99.90
18153;DHT22;9202;51.578;7.734;2023-10-31T09:18:12;11.50;99.90
18153;DHT22;9202;51.578;7.734;2023-10-31T09:20:16;11.50;99.90
18153;DHT22;9202;51.578;7.734;2023-10-31T09:22:19;11.50;99.90
18153;DHT22;9202;51.578;7.734;2023-10-31T09:24:22;11.50;99.90
18153;DHT22;9202;51.578;7.734;2023-10-31T09:26:25;12.30;99.90
18153;DHT22;9202;51.578;7.734;2023-10-31T09:28:28;11.50;99.90
18153;DHT22;9202;51.578;7.734;2023-10-31T09:30:31;9.00;99.90
18153;DHT22;9202;51.578;7.734;2023-10-31T09:32:33;11.50;99.90
18153;DHT22;9202;51.578;7.734;2023-10-31T09:34:55;11.50;99.90
18153;DHT22;9202;51.578;7.734;2023-10-31T09:36:58;11.50;99.90
18153;DHT22;9202;51.578;7.734;2023-10-31T09:39:01;11.60;99.90
18153;DHT22;9202;51.578;7.734;2023-10-31T09:41:05;11.60;99.90
18153;DHT22;9202;51.578;7.734;2023-10-31T09:43:08;11.50;99.90
18153;DHT22;9202;51.578;7.734;2023-10-31T09:45:11;11.60;99.90
18153;DHT22;9202;51.578;7.734;2023-10-31T09:47:14;11.50;99.90
18153;DHT22;9202;51.578;7.734;2023-10-31T09:49:17;11.60;99.90
18153;DHT22;9202;51.578;7.734;2023-10-31T09:51:20;11.60;99.90
18153;DHT22;9202;51.578;7.734;2023-10-31T10:26:56;13.70;99.90
18153;DHT22;9202;51.578;7.734;2023-10-31T11:58:17;14.20;99.90
18153;DHT22;9202;51.578;7.734;2023-10-31T12:00:21;12.40;99.90
18153;DHT22;9202;51.578;7.734;2023-10-31T12:02:24;12.30;99.90
18153;DHT22;9202;51.578;7.734;2023-10-31T12:04:27;12.30;99.90
18153;DHT22;9202;51.578;7.734;2023-10-31T12:06:30;12.30;99.90
18153;DHT22;9202;51.578;7.734;2023-10-31T12:08:33;12.20;99.90
18153;DHT22;9202;51.578;7.734;2023-10-31T12:10:36;12.20;99.90
18153;DHT22;9202;51.578;7.734;2023-10-31T13:07:06;13.00;99.90
18153;DHT22;9202;51.578;7.734;2023-10-31T13:09:11;13.00;99.90
18153;DHT22;9202;51.578;7.734;2023-10-31T13:11:14;13.00;99.90
18153;DHT22;9202;51.578;7.734;2023-10-31T13:13:17;13.10;99.90
18153;DHT22;9202;51.578;7.734;2023-10-31T13:15:19;13.00;99.90
18153;DHT22;9202;51.578;7.734;2023-10-31T13:17:22;13.00;99.90
18153;DHT22;9202;51.578;7.734;2023-10-31T13:19:25;13.00;99.90
18153;DHT22;9202;51.578;7.734;2023-10-31T13:21:30;12.90;99.90
18153;DHT22;9202;51.578;7.734;2023-10-31T13:36:31;12.90;99.90
18153;DHT22;9202;51.578;7.734;2023-10-31T13:53:55;13.00;99.90
18153;DHT22;9202;51.578;7.734;2023-10-31T13:55:59;13.10;99.90
18153;DHT22;9202;51.578;7.734;2023-10-31T13:58:02;13.10;99.90
18153;DHT22;9202;51.578;7.734;2023-10-31T14:00:06;13.10;99.90
18153;DHT22;9202;51.578;7.734;2023-10-31T14:02:12;13.10;99.90
18153;DHT22;9202;51.578;7.734;2023-10-31T14:04:15;13.10;99.90
18153;DHT22;9202;51.578;7.734;2023-10-31T14:06:18;13.20;99.90
18153;DHT22;9202;51.578;7.734;2023-10-31T14:08:21;13.20;99.90
18153;DHT22;9202;51.578;7.734;2023-10-31T14:10:24;13.20;99.90
18153;DHT22;9202;51.578;7.734;2023-10-31T14:12:28;13.20;99.90
18153;DHT22;9202;51.578;7.734;2023-10-31T14:14:31;13.30;99.90
18153;DHT22;9202;51.578;7.734;2023-10-31T14:16:33;13.30;99.90
18153;DHT22;9202;51.578;7.734;2023-10-31T14:18:36;13.40;99.90
18153;DHT22;9202;51.578;7.734;2023-10-31T14:20:39;13.30;99.90
18153;DHT22;9202;51.578;7.734;2023-10-31T14:22:47;13.30;99.90
18153;DHT22;9202;51.578;7.734;2023-10-31T14:24:49;13.30;99.90
18153;DHT22;9202;51.578;7.734;2023-10-31T14:26:54;13.20;99.90
18153;DHT22;9202;51.578;7.734;2023-10-31T14:28:56;13.20;99.90
18153;DHT22;9202;51.578;7.734;2023-10-31T14:30:59;13.20;99.90
18153;DHT22;9202;51.578;7.734;2023-10-31T14:33:02;13.30;99.90
18153;DHT22;9202;51.578;7.734;2023-10-31T14:35:05;13.30;99.90
18153;DHT22;9202;51.578;7.734;2023-10-31T14:37:08;13.30;99.90
18153;DHT22;9202;51.578;7.734;2023-10-31T14:39:12;13.20;99.90
18153;DHT22;9202;51.578;7.734;2023-10-31T14:41:15;13.30;99.90
18153;DHT22;9202;51.578;7.734;2023-10-31T14:43:17;13.30;99.90
18153;DHT22;9202;51.578;7.734;2023-10-31T14:45:20;13.30;99.90
18153;DHT22;9202;51.578;7.734;2023-10-31T14:47:23;13.30;99.90
18153;DHT22;9202;51.578;7.734;2023-10-31T14:49:26;13.30;99.90
18153;DHT22;9202;51.578;7.734;2023-10-31T14:51:28;13.30;99.90
18153;DHT22;9202;51.578;7.734;2023-10-31T14:53:31;13.20;99.90
18153;DHT22;9202;51.578;7.734;2023-10-31T14:55:34;13.20;99.90
18153;DHT22;9202;51.578;7.734;2023-10-31T14:57:37;13.10;99.90
18153;DHT22;9202;51.578;7.734;2023-10-31T14:59:40;13.10;99.90
18153;DHT22;9202;51.578;7.734;2023-10-31T15:01:43;13.10;99.90
18153;DHT22;9202;51.578;7.734;2023-10-31T15:03:45;13.00;99.90
18153;DHT22;9202;51.578;7.734;2023-10-31T15:05:48;12.90;99.90
18153;DHT22;9202;51.578;7.734;2023-10-31T15:07:51;12.80;99.90
18153;DHT22;9202;51.578;7.734;2023-10-31T15:09:56;12.90;99.90
18153;DHT22;9202;51.578;7.734;2023-10-31T15:11:58;12.80;99.90
18153;DHT22;9202;51.578;7.734;2023-10-31T15:14:01;12.70;99.90
18153;DHT22;9202;51.578;7.734;2023-10-31T15:16:04;12.60;99.90
18153;DHT22;9202;51.578;7.734;2023-10-31T15:18:08;12.60;99.90
18153;DHT22;9202;51.578;7.734;2023-10-31T15:20:11;12.60;99.90
18153;DHT22;9202;51.578;7.734;2023-10-31T15:22:15;12.50;99.90
18153;DHT22;9202;51.578;7.734;2023-10-31T15:24:17;11.40;99.90
18153;DHT22;9202;51.578;7.734;2023-10-31T15:26:20;12.40;99.90
18153;DHT22;9202;51.578;7.734;2023-10-31T15:28:25;12.40;99.90
18153;DHT22;9202;51.578;7.734;2023-10-31T15:30:28;12.30;99.90
18153;DHT22;9202;51.578;7.734;2023-10-31T15:32:30;12.30;99.90
18153;DHT22;9202;51.578;7.734;2023-10-31T15:34:33;12.30;99.90
18153;DHT22;9202;51.578;7.734;2023-10-31T15:36:38;12.20;99.90
18153;DHT22;9202;51.578;7.734;2023-10-31T16:02:42;13.50;99.90
18153;DHT22;9202;51.578;7.734;2023-10-31T17:30:18;11.00;99.90
18153;DHT22;9202;51.578;7.734;2023-10-31T17:32:22;11.10;99.90
18153;DHT22;9202;51.578;7.734;2023-10-31T17:34:25;11.10;99.90
18153;DHT22;9202;51.578;7.734;2023-10-31T17:50:13;11.10;99.90
18153;DHT22;9202;51.578;7.734;2023-10-31T17:52:15;11.20;99.90
18153;DHT22;9202;51.578;7.734;2023-10-31T17:54:18;11.20;99.90
18153;DHT22;9202;51.578;7.734;2023-10-31T17:56:22;11.20;99.90
18153;DHT22;9202;51.578;7.734;2023-10-31T17:58:25;11.20;99.90
18153;DHT22;9202;51.578;7.734;2023-10-31T18:16:23;11.30;99.90
18153;DHT22;9202;51.578;7.734;2023-10-31T18:18:25;11.20;99.90
18153;DHT22;9202;51.578;7.734;2023-10-31T18:20:28;11.30;99.90
18153;DHT22;9202;51.578;7.734;2023-10-31T18:36:09;11.30;99.90
18153;DHT22;9202;51.578;7.734;2023-10-31T18:38:12;11.30;99.90
18153;DHT22;9202;51.578;7.734;2023-10-31T18:40:15;11.30;99.90
18153;DHT22;9202;51.578;7.734;2023-10-31T18:42:17;11.30;99.90
18153;DHT22;9202;51.578;7.734;2023-10-31T18:44:22;11.20;99.90
18153;DHT22;9202;51.578;7.734;2023-10-31T18:46:26;11.20;99.90
18153;DHT22;9202;51.578;7.734;2023-10-31T18:48:29;11.20;99.90
18153;DHT22;9202;51.578;7.734;2023-10-31T18:50:32;11.20;99.90
18153;DHT22;9202;51.578;7.734;2023-10-31T18:52:35;11.20;99.90
18153;DHT22;9202;51.578;7.734;2023-10-31T18:54:39;11.20;99.90
18153;DHT22;9202;51.578;7.734;2023-10-31T18:56:41;11.20;99.90
18153;DHT22;9202;51.578;7.734;2023-10-31T18:58:45;11.20;99.90
18153;DHT22;9202;51.578;7.734;2023-10-31T19:00:49;11.20;99.90
18153;DHT22;9202;51.578;7.734;2023-10-31T19:02:53;11.10;99.90
18153;DHT22;9202;51.578;7.734;2023-10-31T19:04:56;11.10;99.90
18153;DHT22;9202;51.578;7.734;2023-10-31T19:06:58;11.10;99.90
18153;DHT22;9202;51.578;7.734;2023-10-31T19:09:01;11.10;99.90
18153;DHT22;9202;51.578;7.734;2023-10-31T19:11:05;11.10;99.90
18153;DHT22;9202;51.578;7.734;2023-10-31T19:13:08;11.10;99.90